sensor_id;sensor_type;location;lat;lon;timestamp;P1;durP1;ratioP1;P2;durP2;ratioP2
15982;SDS011;14442;50.196;8.096;2023-08-31T00:00:48;0.97;;;0.60;;
15982;SDS011;14442;50.196;8.096;2023-08-31T00:03:16;0.67;;;0.60;;
15982;SDS011;14442;50.196;8.096;2023-08-31T00:05:43;1.33;;;0.60;;
15982;SDS011;14442;50.196;8.096;2023-08-31T00:08:10;0.33;;;0.33;;
15982;SDS011;14442;50.196;8.096;2023-08-31T00:10:37;0.40;;;0.40;;
15982;SDS011;14442;50.196;8.096;2023-08-31T00:13:05;0.40;;;0.40;;
15982;SDS011;14442;50.196;8.096;2023-08-31T00:15:34;0.40;;;0.40;;
15982;SDS011;14442;50.196;8.096;2023-08-31T00:18:02;2.23;;;0.57;;
15982;SDS011;14442;50.196;8.096;2023-08-31T00:20:29;2.17;;;0.70;;
15982;SDS011;14442;50.196;8.096;2023-08-31T00:22:58;1.13;;;0.53;;
15982;SDS011;14442;50.196;8.096;2023-08-31T00:25:24;0.60;;;0.60;;
15982;SDS011;14442;50.196;8.096;2023-08-31T00:27:51;0.50;;;0.50;;
15982;SDS011;14442;50.196;8.096;2023-08-31T00:30:19;0.60;;;0.60;;
15982;SDS011;14442;50.196;8.096;2023-08-31T00:32:47;1.07;;;0.60;;
15982;SDS011;14442;50.196;8.096;2023-08-31T00:35:18;1.53;;;0.50;;
15982;SDS011;14442;50.196;8.096;2023-08-31T00:37:45;1.37;;;0.30;;
15982;SDS011;14442;50.196;8.096;2023-08-31T00:40:12;0.83;;;0.70;;
15982;SDS011;14442;50.196;8.096;2023-08-31T00:42:39;1.50;;;0.60;;
15982;SDS011;14442;50.196;8.096;2023-08-31T00:45:07;0.87;;;0.50;;
15982;SDS011;14442;50.196;8.096;2023-08-31T00:47:35;1.33;;;0.53;;
15982;SDS011;14442;50.196;8.096;2023-08-31T00:50:03;0.53;;;0.53;;
15982;SDS011;14442;50.196;8.096;2023-08-31T00:52:33;2.00;;;0.60;;
15982;SDS011;14442;50.196;8.096;2023-08-31T00:55:00;0.40;;;0.30;;
15982;SDS011;14442;50.196;8.096;2023-08-31T00:57:30;0.67;;;0.67;;
15982;SDS011;14442;50.196;8.096;2023-08-31T00:59:57;0.97;;;0.50;;
15982;SDS011;14442;50.196;8.096;2023-08-31T01:02:27;2.53;;;0.47;;
15982;SDS011;14442;50.196;8.096;2023-08-31T01:05:02;1.10;;;0.50;;
15982;SDS011;14442;50.196;8.096;2023-08-31T01:07:36;0.30;;;0.30;;
15982;SDS011;14442;50.196;8.096;2023-08-31T01:10:12;0.57;;;0.37;;
15982;SDS011;14442;50.196;8.096;2023-08-31T01:12:44;0.90;;;0.20;;
15982;SDS011;14442;50.196;8.096;2023-08-31T01:15:20;0.30;;;0.30;;
15982;SDS011;14442;50.196;8.096;2023-08-31T01:17:48;0.20;;;0.20;;
15982;SDS011;14442;50.196;8.096;2023-08-31T01:20:21;0.13;;;0.13;;
15982;SDS011;14442;50.196;8.096;2023-08-31T01:22:57;0.10;;;0.10;;
15982;SDS011;14442;50.196;8.096;2023-08-31T01:25:29;0.20;;;0.20;;
15982;SDS011;14442;50.196;8.096;2023-08-31T01:27:58;0.77;;;0.13;;
15982;SDS011;14442;50.196;8.096;2023-08-31T01:30:26;1.63;;;0.20;;
15982;SDS011;14442;50.196;8.096;2023-08-31T01:32:55;0.30;;;0.20;;
15982;SDS011;14442;50.196;8.096;2023-08-31T01:35:22;0.20;;;0.20;;
15982;SDS011;14442;50.196;8.096;2023-08-31T01:37:50;0.30;;;0.30;;
15982;SDS011;14442;50.196;8.096;2023-08-31T01:40:20;1.17;;;0.30;;
15982;SDS011;14442;50.196;8.096;2023-08-31T01:42:52;0.30;;;0.20;;
15982;SDS011;14442;50.196;8.096;2023-08-31T01:45:22;1.13;;;0.30;;
15982;SDS011;14442;50.196;8.096;2023-08-31T01:47:50;1.33;;;0.47;;
15982;SDS011;14442;50.196;8.096;2023-08-31T01:50:16;1.90;;;0.40;;
15982;SDS011;14442;50.196;8.096;2023-08-31T01:52:43;0.50;;;0.40;;
15982;SDS011;14442;50.196;8.096;2023-08-31T01:55:10;1.80;;;0.40;;
15982;SDS011;14442;50.196;8.096;2023-08-31T01:57:38;1.33;;;0.40;;
15982;SDS011;14442;50.196;8.096;2023-08-31T02:00:07;0.30;;;0.30;;
15982;SDS011;14442;50.196;8.096;2023-08-31T02:02:34;0.47;;;0.40;;
15982;SDS011;14442;50.196;8.096;2023-08-31T02:05:01;1.67;;;0.60;;
15982;SDS011;14442;50.196;8.096;2023-08-31T02:07:29;1.13;;;0.40;;
15982;SDS011;14442;50.196;8.096;2023-08-31T02:09:56;1.33;;;0.50;;
15982;SDS011;14442;50.196;8.096;2023-08-31T02:12:23;1.60;;;0.40;;
15982;SDS011;14442;50.196;8.096;2023-08-31T02:14:49;1.33;;;0.50;;
15982;SDS011;14442;50.196;8.096;2023-08-31T02:17:18;0.40;;;0.40;;
15982;SDS011;14442;50.196;8.096;2023-08-31T02:19:45;0.47;;;0.30;;
15982;SDS011;14442;50.196;8.096;2023-08-31T02:22:11;1.73;;;0.50;;
15982;SDS011;14442;50.196;8.096;2023-08-31T02:24:38;0.40;;;0.40;;
15982;SDS011;14442;50.196;8.096;2023-08-31T02:27:05;0.90;;;0.60;;
15982;SDS011;14442;50.196;8.096;2023-08-31T02:29:31;0.93;;;0.70;;
15982;SDS011;14442;50.196;8.096;2023-08-31T02:31:58;0.90;;;0.60;;
15982;SDS011;14442;50.196;8.096;2023-08-31T02:34:26;4.90;;;0.63;;
15982;SDS011;14442;50.196;8.096;2023-08-31T02:36:53;1.10;;;0.70;;
15982;SDS011;14442;50.196;8.096;2023-08-31T02:39:20;0.60;;;0.60;;
15982;SDS011;14442;50.196;8.096;2023-08-31T02:41:46;0.80;;;0.80;;
15982;SDS011;14442;50.196;8.096;2023-08-31T02:44:13;1.60;;;0.57;;
15982;SDS011;14442;50.196;8.096;2023-08-31T02:46:40;3.23;;;0.70;;
15982;SDS011;14442;50.196;8.096;2023-08-31T02:49:07;1.27;;;0.50;;
15982;SDS011;14442;50.196;8.096;2023-08-31T02:51:35;0.80;;;0.67;;
15982;SDS011;14442;50.196;8.096;2023-08-31T02:54:02;1.37;;;0.70;;
15982;SDS011;14442;50.196;8.096;2023-08-31T02:56:29;1.53;;;0.80;;
15982;SDS011;14442;50.196;8.096;2023-08-31T02:58:56;1.40;;;0.67;;
15982;SDS011;14442;50.196;8.096;2023-08-31T03:01:23;0.57;;;0.57;;
15982;SDS011;14442;50.196;8.096;2023-08-31T03:03:49;0.93;;;0.80;;
15982;SDS011;14442;50.196;8.096;2023-08-31T03:06:16;1.57;;;0.90;;
15982;SDS011;14442;50.196;8.096;2023-08-31T03:08:44;2.57;;;1.03;;
15982;SDS011;14442;50.196;8.096;2023-08-31T03:11:11;0.60;;;0.60;;
15982;SDS011;14442;50.196;8.096;2023-08-31T03:13:39;0.70;;;0.70;;
15982;SDS011;14442;50.196;8.096;2023-08-31T03:16:07;0.70;;;0.70;;
15982;SDS011;14442;50.196;8.096;2023-08-31T03:18:33;1.23;;;0.90;;
15982;SDS011;14442;50.196;8.096;2023-08-31T03:21:00;1.00;;;0.67;;
15982;SDS011;14442;50.196;8.096;2023-08-31T03:23:28;1.40;;;0.83;;
15982;SDS011;14442;50.196;8.096;2023-08-31T03:25:57;2.40;;;0.70;;
15982;SDS011;14442;50.196;8.096;2023-08-31T03:28:23;1.30;;;0.57;;
15982;SDS011;14442;50.196;8.096;2023-08-31T03:30:54;1.47;;;0.90;;
15982;SDS011;14442;50.196;8.096;2023-08-31T03:33:21;4.40;;;0.80;;
15982;SDS011;14442;50.196;8.096;2023-08-31T03:35:48;2.37;;;0.53;;
15982;SDS011;14442;50.196;8.096;2023-08-31T03:38:15;5.23;;;0.70;;
15982;SDS011;14442;50.196;8.096;2023-08-31T03:40:41;3.60;;;0.70;;
15982;SDS011;14442;50.196;8.096;2023-08-31T03:43:10;2.57;;;0.50;;
15982;SDS011;14442;50.196;8.096;2023-08-31T03:45:37;7.63;;;0.80;;
15982;SDS011;14442;50.196;8.096;2023-08-31T03:48:04;3.40;;;0.60;;
15982;SDS011;14442;50.196;8.096;2023-08-31T03:50:31;1.30;;;0.70;;
15982;SDS011;14442;50.196;8.096;2023-08-31T03:52:57;3.77;;;0.70;;
15982;SDS011;14442;50.196;8.096;2023-08-31T03:55:24;5.60;;;0.90;;
15982;SDS011;14442;50.196;8.096;2023-08-31T03:57:51;6.47;;;0.70;;
15982;SDS011;14442;50.196;8.096;2023-08-31T04:00:19;3.33;;;0.50;;
15982;SDS011;14442;50.196;8.096;2023-08-31T04:02:46;1.97;;;0.53;;
15982;SDS011;14442;50.196;8.096;2023-08-31T04:05:12;2.03;;;0.60;;
15982;SDS011;14442;50.196;8.096;2023-08-31T04:07:40;4.60;;;0.80;;
15982;SDS011;14442;50.196;8.096;2023-08-31T04:10:07;3.93;;;0.50;;
15982;SDS011;14442;50.196;8.096;2023-08-31T04:12:34;5.57;;;0.60;;
15982;SDS011;14442;50.196;8.096;2023-08-31T04:15:01;2.73;;;0.50;;
15982;SDS011;14442;50.196;8.096;2023-08-31T04:17:30;2.10;;;0.40;;
15982;SDS011;14442;50.196;8.096;2023-08-31T04:19:57;3.10;;;0.70;;
15982;SDS011;14442;50.196;8.096;2023-08-31T04:22:24;3.27;;;0.50;;
15982;SDS011;14442;50.196;8.096;2023-08-31T04:24:51;3.90;;;0.67;;
15982;SDS011;14442;50.196;8.096;2023-08-31T04:27:18;13.23;;;1.10;;
15982;SDS011;14442;50.196;8.096;2023-08-31T04:29:45;7.33;;;0.87;;
15982;SDS011;14442;50.196;8.096;2023-08-31T04:32:13;6.30;;;1.03;;
15982;SDS011;14442;50.196;8.096;2023-08-31T04:34:41;8.10;;;1.10;;
15982;SDS011;14442;50.196;8.096;2023-08-31T04:37:08;8.43;;;0.80;;
15982;SDS011;14442;50.196;8.096;2023-08-31T04:39:34;8.03;;;1.17;;
15982;SDS011;14442;50.196;8.096;2023-08-31T04:42:01;8.63;;;1.10;;
15982;SDS011;14442;50.196;8.096;2023-08-31T04:44:28;7.93;;;1.93;;
15982;SDS011;14442;50.196;8.096;2023-08-31T04:46:55;4.63;;;0.80;;
15982;SDS011;14442;50.196;8.096;2023-08-31T04:49:21;4.80;;;0.50;;
15982;SDS011;14442;50.196;8.096;2023-08-31T04:51:50;7.07;;;0.90;;
15982;SDS011;14442;50.196;8.096;2023-08-31T04:54:16;3.10;;;0.53;;
15982;SDS011;14442;50.196;8.096;2023-08-31T04:56:43;3.13;;;0.63;;
15982;SDS011;14442;50.196;8.096;2023-08-31T04:59:10;3.53;;;0.60;;
15982;SDS011;14442;50.196;8.096;2023-08-31T05:01:37;5.77;;;0.80;;
15982;SDS011;14442;50.196;8.096;2023-08-31T05:04:03;5.80;;;0.70;;
15982;SDS011;14442;50.196;8.096;2023-08-31T05:06:30;4.20;;;0.80;;
15982;SDS011;14442;50.196;8.096;2023-08-31T05:08:58;3.70;;;0.37;;
15982;SDS011;14442;50.196;8.096;2023-08-31T05:11:26;4.83;;;0.60;;
15982;SDS011;14442;50.196;8.096;2023-08-31T05:13:52;5.73;;;0.63;;
15982;SDS011;14442;50.196;8.096;2023-08-31T05:16:19;1.97;;;0.50;;
15982;SDS011;14442;50.196;8.096;2023-08-31T05:18:46;3.50;;;0.67;;
15982;SDS011;14442;50.196;8.096;2023-08-31T05:21:14;3.90;;;0.67;;
15982;SDS011;14442;50.196;8.096;2023-08-31T05:23:41;2.23;;;0.40;;
15982;SDS011;14442;50.196;8.096;2023-08-31T05:26:09;3.27;;;0.50;;
15982;SDS011;14442;50.196;8.096;2023-08-31T05:28:35;2.00;;;0.67;;
15982;SDS011;14442;50.196;8.096;2023-08-31T05:31:02;0.93;;;0.50;;
15982;SDS011;14442;50.196;8.096;2023-08-31T05:33:30;3.37;;;0.57;;
15982;SDS011;14442;50.196;8.096;2023-08-31T05:35:59;3.07;;;0.60;;
15982;SDS011;14442;50.196;8.096;2023-08-31T05:38:28;2.30;;;0.30;;
15982;SDS011;14442;50.196;8.096;2023-08-31T05:41:02;0.97;;;0.40;;
15982;SDS011;14442;50.196;8.096;2023-08-31T05:43:32;1.00;;;0.40;;
15982;SDS011;14442;50.196;8.096;2023-08-31T05:45:58;2.70;;;0.60;;
15982;SDS011;14442;50.196;8.096;2023-08-31T05:48:25;0.73;;;0.30;;
15982;SDS011;14442;50.196;8.096;2023-08-31T05:50:53;3.33;;;0.53;;
15982;SDS011;14442;50.196;8.096;2023-08-31T05:53:20;1.40;;;0.50;;
15982;SDS011;14442;50.196;8.096;2023-08-31T05:55:46;1.87;;;0.30;;
15982;SDS011;14442;50.196;8.096;2023-08-31T05:58:13;1.03;;;0.43;;
15982;SDS011;14442;50.196;8.096;2023-08-31T06:00:41;0.87;;;0.37;;
15982;SDS011;14442;50.196;8.096;2023-08-31T06:03:08;1.43;;;0.43;;
15982;SDS011;14442;50.196;8.096;2023-08-31T06:05:35;1.00;;;0.50;;
15982;SDS011;14442;50.196;8.096;2023-08-31T06:08:03;2.30;;;0.30;;
15982;SDS011;14442;50.196;8.096;2023-08-31T06:10:30;1.23;;;0.33;;
15982;SDS011;14442;50.196;8.096;2023-08-31T06:12:57;2.00;;;0.40;;
15982;SDS011;14442;50.196;8.096;2023-08-31T06:15:24;5.73;;;0.40;;
15982;SDS011;14442;50.196;8.096;2023-08-31T06:17:52;2.07;;;0.40;;
15982;SDS011;14442;50.196;8.096;2023-08-31T06:20:19;2.37;;;0.50;;
15982;SDS011;14442;50.196;8.096;2023-08-31T06:22:46;3.70;;;0.70;;
15982;SDS011;14442;50.196;8.096;2023-08-31T06:25:12;1.93;;;0.50;;
15982;SDS011;14442;50.196;8.096;2023-08-31T06:27:41;1.57;;;0.60;;
15982;SDS011;14442;50.196;8.096;2023-08-31T06:30:08;2.20;;;0.73;;
15982;SDS011;14442;50.196;8.096;2023-08-31T06:32:40;1.47;;;0.50;;
15982;SDS011;14442;50.196;8.096;2023-08-31T06:35:09;1.40;;;0.50;;
15982;SDS011;14442;50.196;8.096;2023-08-31T06:37:36;2.33;;;0.70;;
15982;SDS011;14442;50.196;8.096;2023-08-31T06:40:04;2.73;;;0.73;;
15982;SDS011;14442;50.196;8.096;2023-08-31T06:42:31;2.63;;;0.50;;
15982;SDS011;14442;50.196;8.096;2023-08-31T06:44:58;2.77;;;0.77;;
15982;SDS011;14442;50.196;8.096;2023-08-31T06:47:24;3.87;;;0.53;;
15982;SDS011;14442;50.196;8.096;2023-08-31T06:49:51;2.90;;;0.53;;
15982;SDS011;14442;50.196;8.096;2023-08-31T06:52:19;4.63;;;0.70;;
15982;SDS011;14442;50.196;8.096;2023-08-31T06:54:46;3.33;;;0.70;;
15982;SDS011;14442;50.196;8.096;2023-08-31T06:57:13;3.53;;;0.77;;
15982;SDS011;14442;50.196;8.096;2023-08-31T06:59:39;2.53;;;0.70;;
15982;SDS011;14442;50.196;8.096;2023-08-31T07:02:06;3.30;;;0.60;;
15982;SDS011;14442;50.196;8.096;2023-08-31T07:04:33;1.47;;;0.60;;
15982;SDS011;14442;50.196;8.096;2023-08-31T07:06:59;1.83;;;0.50;;
15982;SDS011;14442;50.196;8.096;2023-08-31T07:09:28;2.87;;;0.73;;
15982;SDS011;14442;50.196;8.096;2023-08-31T07:11:54;1.73;;;0.50;;
15982;SDS011;14442;50.196;8.096;2023-08-31T07:14:21;2.23;;;0.50;;
15982;SDS011;14442;50.196;8.096;2023-08-31T07:16:48;1.97;;;1.33;;
15982;SDS011;14442;50.196;8.096;2023-08-31T07:19:15;2.60;;;0.77;;
15982;SDS011;14442;50.196;8.096;2023-08-31T07:21:42;3.90;;;0.90;;
15982;SDS011;14442;50.196;8.096;2023-08-31T07:24:08;2.10;;;0.70;;
15982;SDS011;14442;50.196;8.096;2023-08-31T07:26:36;4.50;;;0.50;;
15982;SDS011;14442;50.196;8.096;2023-08-31T07:29:03;3.73;;;0.70;;
15982;SDS011;14442;50.196;8.096;2023-08-31T07:31:30;1.10;;;0.40;;
15982;SDS011;14442;50.196;8.096;2023-08-31T07:33:57;2.77;;;0.60;;
15982;SDS011;14442;50.196;8.096;2023-08-31T07:36:24;1.87;;;0.60;;
15982;SDS011;14442;50.196;8.096;2023-08-31T07:38:51;4.03;;;0.60;;
15982;SDS011;14442;50.196;8.096;2023-08-31T07:41:18;4.27;;;0.60;;
15982;SDS011;14442;50.196;8.096;2023-08-31T07:43:46;3.27;;;0.63;;
15982;SDS011;14442;50.196;8.096;2023-08-31T07:46:14;1.00;;;0.37;;
15982;SDS011;14442;50.196;8.096;2023-08-31T07:48:41;1.57;;;0.60;;
15982;SDS011;14442;50.196;8.096;2023-08-31T07:51:08;2.13;;;0.50;;
15982;SDS011;14442;50.196;8.096;2023-08-31T07:53:35;2.90;;;0.40;;
15982;SDS011;14442;50.196;8.096;2023-08-31T07:56:01;2.20;;;0.47;;
15982;SDS011;14442;50.196;8.096;2023-08-31T07:58:28;1.57;;;0.50;;
15982;SDS011;14442;50.196;8.096;2023-08-31T08:00:56;2.70;;;0.50;;
15982;SDS011;14442;50.196;8.096;2023-08-31T08:03:23;2.93;;;0.60;;
15982;SDS011;14442;50.196;8.096;2023-08-31T08:05:50;0.77;;;0.40;;
15982;SDS011;14442;50.196;8.096;2023-08-31T08:08:17;0.40;;;0.40;;
15982;SDS011;14442;50.196;8.096;2023-08-31T08:10:44;1.97;;;0.70;;
15982;SDS011;14442;50.196;8.096;2023-08-31T08:13:11;1.40;;;0.50;;
15982;SDS011;14442;50.196;8.096;2023-08-31T08:15:38;0.60;;;0.53;;
15982;SDS011;14442;50.196;8.096;2023-08-31T08:18:06;2.60;;;0.43;;
15982;SDS011;14442;50.196;8.096;2023-08-31T08:20:33;2.03;;;0.50;;
15982;SDS011;14442;50.196;8.096;2023-08-31T08:23:00;2.43;;;0.73;;
15982;SDS011;14442;50.196;8.096;2023-08-31T08:25:26;0.47;;;0.40;;
15982;SDS011;14442;50.196;8.096;2023-08-31T08:27:53;2.93;;;0.60;;
15982;SDS011;14442;50.196;8.096;2023-08-31T08:30:20;1.07;;;0.70;;
15982;SDS011;14442;50.196;8.096;2023-08-31T08:32:47;1.70;;;0.50;;
15982;SDS011;14442;50.196;8.096;2023-08-31T08:35:15;0.87;;;0.60;;
15982;SDS011;14442;50.196;8.096;2023-08-31T08:37:41;1.83;;;0.70;;
15982;SDS011;14442;50.196;8.096;2023-08-31T08:40:09;3.20;;;0.50;;
15982;SDS011;14442;50.196;8.096;2023-08-31T08:42:38;1.30;;;0.50;;
15982;SDS011;14442;50.196;8.096;2023-08-31T08:45:07;2.43;;;0.60;;
15982;SDS011;14442;50.196;8.096;2023-08-31T08:47:38;1.70;;;0.40;;
15982;SDS011;14442;50.196;8.096;2023-08-31T08:50:06;1.80;;;0.47;;
15982;SDS011;14442;50.196;8.096;2023-08-31T08:52:36;4.83;;;0.60;;
15982;SDS011;14442;50.196;8.096;2023-08-31T08:55:03;1.33;;;0.53;;
15982;SDS011;14442;50.196;8.096;2023-08-31T08:57:31;2.23;;;0.60;;
15982;SDS011;14442;50.196;8.096;2023-08-31T08:59:58;2.43;;;0.50;;
15982;SDS011;14442;50.196;8.096;2023-08-31T09:02:25;1.13;;;0.50;;
15982;SDS011;14442;50.196;8.096;2023-08-31T09:04:51;1.27;;;0.53;;
15982;SDS011;14442;50.196;8.096;2023-08-31T09:07:19;1.03;;;0.40;;
15982;SDS011;14442;50.196;8.096;2023-08-31T09:09:51;1.00;;;0.60;;
15982;SDS011;14442;50.196;8.096;2023-08-31T09:12:18;1.60;;;0.60;;
15982;SDS011;14442;50.196;8.096;2023-08-31T09:14:57;1.20;;;0.60;;
15982;SDS011;14442;50.196;8.096;2023-08-31T09:17:25;1.07;;;0.40;;
15982;SDS011;14442;50.196;8.096;2023-08-31T09:19:58;2.00;;;0.67;;
15982;SDS011;14442;50.196;8.096;2023-08-31T09:22:27;0.37;;;0.37;;
15982;SDS011;14442;50.196;8.096;2023-08-31T09:24:55;0.63;;;0.43;;
15982;SDS011;14442;50.196;8.096;2023-08-31T09:27:22;1.67;;;0.50;;
15982;SDS011;14442;50.196;8.096;2023-08-31T09:29:49;1.30;;;0.50;;
15982;SDS011;14442;50.196;8.096;2023-08-31T09:32:16;0.70;;;0.30;;
15982;SDS011;14442;50.196;8.096;2023-08-31T09:34:43;0.97;;;0.40;;
15982;SDS011;14442;50.196;8.096;2023-08-31T09:37:10;1.70;;;0.40;;
15982;SDS011;14442;50.196;8.096;2023-08-31T09:39:37;0.40;;;0.40;;
15982;SDS011;14442;50.196;8.096;2023-08-31T09:42:07;1.10;;;0.50;;
15982;SDS011;14442;50.196;8.096;2023-08-31T09:44:34;0.50;;;0.40;;
15982;SDS011;14442;50.196;8.096;2023-08-31T09:47:06;0.43;;;0.40;;
15982;SDS011;14442;50.196;8.096;2023-08-31T09:49:34;0.93;;;0.40;;
15982;SDS011;14442;50.196;8.096;2023-08-31T09:52:01;0.43;;;0.40;;
15982;SDS011;14442;50.196;8.096;2023-08-31T09:54:31;1.50;;;0.57;;
15982;SDS011;14442;50.196;8.096;2023-08-31T09:57:00;1.20;;;0.50;;
15982;SDS011;14442;50.196;8.096;2023-08-31T09:59:29;3.03;;;0.70;;
15982;SDS011;14442;50.196;8.096;2023-08-31T10:01:59;0.30;;;0.30;;
15982;SDS011;14442;50.196;8.096;2023-08-31T10:04:28;1.47;;;0.50;;
15982;SDS011;14442;50.196;8.096;2023-08-31T10:06:57;2.00;;;0.47;;
15982;SDS011;14442;50.196;8.096;2023-08-31T10:09:24;1.53;;;0.30;;
15982;SDS011;14442;50.196;8.096;2023-08-31T10:11:52;1.63;;;0.57;;
15982;SDS011;14442;50.196;8.096;2023-08-31T10:14:20;1.27;;;0.50;;
15982;SDS011;14442;50.196;8.096;2023-08-31T10:16:49;0.57;;;0.40;;
15982;SDS011;14442;50.196;8.096;2023-08-31T10:19:18;1.43;;;0.50;;
15982;SDS011;14442;50.196;8.096;2023-08-31T10:21:45;1.03;;;0.40;;
15982;SDS011;14442;50.196;8.096;2023-08-31T10:24:11;1.13;;;0.40;;
15982;SDS011;14442;50.196;8.096;2023-08-31T10:26:38;0.60;;;0.40;;
15982;SDS011;14442;50.196;8.096;2023-08-31T10:29:05;0.77;;;0.30;;
15982;SDS011;14442;50.196;8.096;2023-08-31T10:31:32;0.47;;;0.47;;
15982;SDS011;14442;50.196;8.096;2023-08-31T10:34:01;0.50;;;0.50;;
15982;SDS011;14442;50.196;8.096;2023-08-31T10:36:36;0.40;;;0.40;;
15982;SDS011;14442;50.196;8.096;2023-08-31T10:39:05;1.70;;;0.60;;
15982;SDS011;14442;50.196;8.096;2023-08-31T10:41:38;0.50;;;0.40;;
15982;SDS011;14442;50.196;8.096;2023-08-31T10:44:18;1.63;;;0.60;;
15982;SDS011;14442;50.196;8.096;2023-08-31T10:46:45;0.80;;;0.67;;
15982;SDS011;14442;50.196;8.096;2023-08-31T10:49:14;0.43;;;0.33;;
15982;SDS011;14442;50.196;8.096;2023-08-31T10:51:42;0.83;;;0.30;;
15982;SDS011;14442;50.196;8.096;2023-08-31T10:54:11;0.63;;;0.40;;
15982;SDS011;14442;50.196;8.096;2023-08-31T10:56:56;0.60;;;0.50;;
15982;SDS011;14442;50.196;8.096;2023-08-31T10:59:41;1.50;;;0.40;;
15982;SDS011;14442;50.196;8.096;2023-08-31T11:02:09;0.70;;;0.63;;
15982;SDS011;14442;50.196;8.096;2023-08-31T11:07:23;0.70;;;0.43;;
15982;SDS011;14442;50.196;8.096;2023-08-31T11:09:51;0.80;;;0.40;;
15982;SDS011;14442;50.196;8.096;2023-08-31T11:12:21;0.80;;;0.50;;
15982;SDS011;14442;50.196;8.096;2023-08-31T11:14:48;0.63;;;0.50;;
15982;SDS011;14442;50.196;8.096;2023-08-31T11:17:15;0.83;;;0.47;;
15982;SDS011;14442;50.196;8.096;2023-08-31T11:19:42;1.80;;;0.40;;
15982;SDS011;14442;50.196;8.096;2023-08-31T11:22:12;0.40;;;0.30;;
15982;SDS011;14442;50.196;8.096;2023-08-31T11:24:39;1.60;;;0.40;;
15982;SDS011;14442;50.196;8.096;2023-08-31T11:27:07;0.50;;;0.30;;
15982;SDS011;14442;50.196;8.096;2023-08-31T11:29:36;1.00;;;0.70;;
15982;SDS011;14442;50.196;8.096;2023-08-31T11:32:03;0.40;;;0.40;;
15982;SDS011;14442;50.196;8.096;2023-08-31T11:34:31;0.57;;;0.50;;
15982;SDS011;14442;50.196;8.096;2023-08-31T11:36:58;0.50;;;0.50;;
15982;SDS011;14442;50.196;8.096;2023-08-31T11:39:26;0.50;;;0.40;;
15982;SDS011;14442;50.196;8.096;2023-08-31T11:41:54;0.50;;;0.40;;
15982;SDS011;14442;50.196;8.096;2023-08-31T11:44:21;1.23;;;0.50;;
15982;SDS011;14442;50.196;8.096;2023-08-31T11:46:48;1.10;;;0.47;;
15982;SDS011;14442;50.196;8.096;2023-08-31T11:49:15;0.40;;;0.40;;
15982;SDS011;14442;50.196;8.096;2023-08-31T11:51:43;0.60;;;0.40;;
15982;SDS011;14442;50.196;8.096;2023-08-31T11:54:10;1.80;;;0.50;;
15982;SDS011;14442;50.196;8.096;2023-08-31T11:56:42;0.80;;;0.30;;
15982;SDS011;14442;50.196;8.096;2023-08-31T11:59:11;0.40;;;0.33;;
15982;SDS011;14442;50.196;8.096;2023-08-31T12:01:39;0.63;;;0.30;;
15982;SDS011;14442;50.196;8.096;2023-08-31T12:04:09;0.40;;;0.40;;
15982;SDS011;14442;50.196;8.096;2023-08-31T12:06:37;0.60;;;0.30;;
15982;SDS011;14442;50.196;8.096;2023-08-31T12:09:05;3.73;;;0.87;;
15982;SDS011;14442;50.196;8.096;2023-08-31T12:11:32;0.73;;;0.30;;
15982;SDS011;14442;50.196;8.096;2023-08-31T12:14:00;0.60;;;0.30;;
15982;SDS011;14442;50.196;8.096;2023-08-31T12:16:32;0.77;;;0.30;;
15982;SDS011;14442;50.196;8.096;2023-08-31T12:19:01;1.90;;;0.43;;
15982;SDS011;14442;50.196;8.096;2023-08-31T12:21:29;0.83;;;0.50;;
15982;SDS011;14442;50.196;8.096;2023-08-31T12:23:56;0.97;;;0.37;;
15982;SDS011;14442;50.196;8.096;2023-08-31T12:26:23;0.73;;;0.40;;
15982;SDS011;14442;50.196;8.096;2023-08-31T12:28:50;1.03;;;0.37;;
15982;SDS011;14442;50.196;8.096;2023-08-31T12:31:18;2.63;;;0.40;;
15982;SDS011;14442;50.196;8.096;2023-08-31T12:33:45;0.30;;;0.30;;
15982;SDS011;14442;50.196;8.096;2023-08-31T12:36:12;0.50;;;0.40;;
15982;SDS011;14442;50.196;8.096;2023-08-31T12:38:39;2.73;;;0.60;;
15982;SDS011;14442;50.196;8.096;2023-08-31T12:41:05;1.47;;;0.77;;
15982;SDS011;14442;50.196;8.096;2023-08-31T12:43:33;0.70;;;0.60;;
15982;SDS011;14442;50.196;8.096;2023-08-31T12:46:00;0.73;;;0.60;;
15982;SDS011;14442;50.196;8.096;2023-08-31T12:48:28;2.27;;;0.90;;
15982;SDS011;14442;50.196;8.096;2023-08-31T12:50:55;3.23;;;0.80;;
15982;SDS011;14442;50.196;8.096;2023-08-31T12:53:22;129.33;;;60.50;;
15982;SDS011;14442;50.196;8.096;2023-08-31T12:55:48;155.97;;;73.70;;
15982;SDS011;14442;50.196;8.096;2023-08-31T12:58:15;96.07;;;43.83;;
15982;SDS011;14442;50.196;8.096;2023-08-31T13:00:42;81.33;;;38.57;;
15982;SDS011;14442;50.196;8.096;2023-08-31T13:03:11;75.47;;;33.33;;
15982;SDS011;14442;50.196;8.096;2023-08-31T13:05:40;69.97;;;34.23;;
15982;SDS011;14442;50.196;8.096;2023-08-31T13:08:07;63.83;;;32.50;;
15982;SDS011;14442;50.196;8.096;2023-08-31T13:10:34;63.17;;;31.50;;
15982;SDS011;14442;50.196;8.096;2023-08-31T13:13:01;60.97;;;30.27;;
15982;SDS011;14442;50.196;8.096;2023-08-31T13:15:27;62.67;;;31.03;;
15982;SDS011;14442;50.196;8.096;2023-08-31T13:17:54;57.00;;;29.63;;
15982;SDS011;14442;50.196;8.096;2023-08-31T13:20:21;61.97;;;30.30;;
15982;SDS011;14442;50.196;8.096;2023-08-31T13:22:49;56.57;;;28.57;;
15982;SDS011;14442;50.196;8.096;2023-08-31T13:25:16;54.73;;;29.10;;
15982;SDS011;14442;50.196;8.096;2023-08-31T13:27:43;54.07;;;27.37;;
15982;SDS011;14442;50.196;8.096;2023-08-31T13:30:10;52.30;;;27.73;;
15982;SDS011;14442;50.196;8.096;2023-08-31T13:32:38;50.53;;;26.43;;
15982;SDS011;14442;50.196;8.096;2023-08-31T13:35:05;53.50;;;27.00;;
15982;SDS011;14442;50.196;8.096;2023-08-31T13:37:33;52.77;;;27.47;;
15982;SDS011;14442;50.196;8.096;2023-08-31T13:40:01;49.50;;;27.23;;
15982;SDS011;14442;50.196;8.096;2023-08-31T13:42:31;55.30;;;26.00;;
15982;SDS011;14442;50.196;8.096;2023-08-31T13:45:00;49.83;;;25.43;;
15982;SDS011;14442;50.196;8.096;2023-08-31T13:47:28;42.87;;;23.70;;
15982;SDS011;14442;50.196;8.096;2023-08-31T13:49:55;46.87;;;22.97;;
15982;SDS011;14442;50.196;8.096;2023-08-31T13:52:21;45.77;;;22.83;;
15982;SDS011;14442;50.196;8.096;2023-08-31T13:54:49;41.70;;;21.97;;
15982;SDS011;14442;50.196;8.096;2023-08-31T13:57:17;44.17;;;24.03;;
15982;SDS011;14442;50.196;8.096;2023-08-31T13:59:44;46.47;;;23.83;;
15982;SDS011;14442;50.196;8.096;2023-08-31T14:02:11;40.10;;;22.03;;
15982;SDS011;14442;50.196;8.096;2023-08-31T14:04:38;45.00;;;22.93;;
15982;SDS011;14442;50.196;8.096;2023-08-31T14:07:04;42.30;;;21.20;;
15982;SDS011;14442;50.196;8.096;2023-08-31T14:09:33;36.50;;;19.77;;
15982;SDS011;14442;50.196;8.096;2023-08-31T14:11:59;38.23;;;19.37;;
15982;SDS011;14442;50.196;8.096;2023-08-31T14:14:28;36.17;;;20.30;;
15982;SDS011;14442;50.196;8.096;2023-08-31T14:16:55;36.73;;;19.30;;
15982;SDS011;14442;50.196;8.096;2023-08-31T14:19:21;32.07;;;17.30;;
15982;SDS011;14442;50.196;8.096;2023-08-31T14:21:48;37.50;;;18.03;;
15982;SDS011;14442;50.196;8.096;2023-08-31T14:24:17;32.97;;;16.87;;
15982;SDS011;14442;50.196;8.096;2023-08-31T14:26:44;29.63;;;15.83;;
15982;SDS011;14442;50.196;8.096;2023-08-31T14:29:11;28.63;;;14.30;;
15982;SDS011;14442;50.196;8.096;2023-08-31T14:31:39;28.40;;;14.17;;
15982;SDS011;14442;50.196;8.096;2023-08-31T14:34:06;22.87;;;11.67;;
15982;SDS011;14442;50.196;8.096;2023-08-31T14:36:32;23.50;;;12.03;;
15982;SDS011;14442;50.196;8.096;2023-08-31T14:38:59;21.63;;;12.43;;
15982;SDS011;14442;50.196;8.096;2023-08-31T14:41:27;21.30;;;12.00;;
15982;SDS011;14442;50.196;8.096;2023-08-31T14:43:53;18.73;;;10.43;;
15982;SDS011;14442;50.196;8.096;2023-08-31T14:46:20;20.00;;;11.77;;
15982;SDS011;14442;50.196;8.096;2023-08-31T14:48:48;22.47;;;12.50;;